sensor_id;sensor_type;location;lat;lon;timestamp;P1;durP1;ratioP1;P2;durP2;ratioP2
11791;SDS011;5953;52.372;9.918;2023-06-10T00:01:16;3.63;;;2.90;;
11791;SDS011;5953;52.372;9.918;2023-06-10T00:03:44;6.20;;;3.40;;
11791;SDS011;5953;52.372;9.918;2023-06-10T00:06:12;6.73;;;3.70;;
11791;SDS011;5953;52.372;9.918;2023-06-10T00:08:40;4.20;;;3.37;;
11791;SDS011;5953;52.372;9.918;2023-06-10T00:11:07;4.90;;;3.57;;
11791;SDS011;5953;52.372;9.918;2023-06-10T00:13:35;5.27;;;3.23;;
11791;SDS011;5953;52.372;9.918;2023-06-10T00:16:03;4.87;;;3.23;;
11791;SDS011;5953;52.372;9.918;2023-06-10T00:18:32;4.87;;;3.60;;
11791;SDS011;5953;52.372;9.918;2023-06-10T00:21:03;8.37;;;4.00;;
11791;SDS011;5953;52.372;9.918;2023-06-10T00:23:31;6.90;;;3.50;;
11791;SDS011;5953;52.372;9.918;2023-06-10T00:26:04;3.67;;;3.20;;
11791;SDS011;5953;52.372;9.918;2023-06-10T00:28:32;5.83;;;3.73;;
11791;SDS011;5953;52.372;9.918;2023-06-10T00:31:00;5.20;;;3.50;;
11791;SDS011;5953;52.372;9.918;2023-06-10T00:33:27;5.60;;;3.47;;
11791;SDS011;5953;52.372;9.918;2023-06-10T00:35:57;3.80;;;2.90;;
11791;SDS011;5953;52.372;9.918;2023-06-10T00:38:24;7.27;;;3.37;;
11791;SDS011;5953;52.372;9.918;2023-06-10T00:40:52;4.73;;;3.30;;
11791;SDS011;5953;52.372;9.918;2023-06-10T00:43:19;6.00;;;3.87;;
11791;SDS011;5953;52.372;9.918;2023-06-10T00:45:47;9.40;;;3.83;;
11791;SDS011;5953;52.372;9.918;2023-06-10T00:48:14;5.93;;;3.67;;
11791;SDS011;5953;52.372;9.918;2023-06-10T00:50:42;7.93;;;4.00;;
11791;SDS011;5953;52.372;9.918;2023-06-10T00:53:11;6.90;;;3.43;;
11791;SDS011;5953;52.372;9.918;2023-06-10T00:55:38;5.10;;;3.40;;
11791;SDS011;5953;52.372;9.918;2023-06-10T00:58:06;7.03;;;4.27;;
11791;SDS011;5953;52.372;9.918;2023-06-10T01:00:33;8.77;;;4.30;;
11791;SDS011;5953;52.372;9.918;2023-06-10T01:03:01;5.67;;;3.30;;
11791;SDS011;5953;52.372;9.918;2023-06-10T01:05:34;5.87;;;3.50;;
11791;SDS011;5953;52.372;9.918;2023-06-10T01:08:03;5.47;;;3.67;;
11791;SDS011;5953;52.372;9.918;2023-06-10T01:10:36;6.27;;;3.63;;
11791;SDS011;5953;52.372;9.918;2023-06-10T01:13:05;9.07;;;4.03;;
11791;SDS011;5953;52.372;9.918;2023-06-10T01:15:34;8.67;;;3.70;;
11791;SDS011;5953;52.372;9.918;2023-06-10T01:18:02;7.40;;;3.40;;
11791;SDS011;5953;52.372;9.918;2023-06-10T01:20:31;7.73;;;4.07;;
11791;SDS011;5953;52.372;9.918;2023-06-10T01:23:00;7.37;;;4.20;;
11791;SDS011;5953;52.372;9.918;2023-06-10T01:25:29;5.27;;;3.53;;
11791;SDS011;5953;52.372;9.918;2023-06-10T01:28:02;5.23;;;4.10;;
11791;SDS011;5953;52.372;9.918;2023-06-10T01:30:31;6.23;;;3.50;;
11791;SDS011;5953;52.372;9.918;2023-06-10T01:33:03;5.40;;;3.63;;
11791;SDS011;5953;52.372;9.918;2023-06-10T01:35:33;7.53;;;3.50;;
11791;SDS011;5953;52.372;9.918;2023-06-10T01:38:02;7.43;;;3.70;;
11791;SDS011;5953;52.372;9.918;2023-06-10T01:40:30;7.60;;;3.67;;
11791;SDS011;5953;52.372;9.918;2023-06-10T01:42:58;6.73;;;3.73;;
11791;SDS011;5953;52.372;9.918;2023-06-10T01:45:25;6.87;;;4.10;;
11791;SDS011;5953;52.372;9.918;2023-06-10T01:47:53;7.80;;;4.30;;
11791;SDS011;5953;52.372;9.918;2023-06-10T01:50:21;5.93;;;3.80;;
11791;SDS011;5953;52.372;9.918;2023-06-10T01:52:48;7.00;;;3.30;;
11791;SDS011;5953;52.372;9.918;2023-06-10T01:55:17;5.27;;;3.67;;
11791;SDS011;5953;52.372;9.918;2023-06-10T01:57:45;5.80;;;3.73;;
11791;SDS011;5953;52.372;9.918;2023-06-10T02:00:13;7.87;;;3.73;;
11791;SDS011;5953;52.372;9.918;2023-06-10T02:02:40;5.17;;;3.70;;
11791;SDS011;5953;52.372;9.918;2023-06-10T02:05:08;10.63;;;3.87;;
11791;SDS011;5953;52.372;9.918;2023-06-10T02:07:36;5.70;;;3.30;;
11791;SDS011;5953;52.372;9.918;2023-06-10T02:10:04;8.67;;;3.90;;
11791;SDS011;5953;52.372;9.918;2023-06-10T02:12:33;8.03;;;3.93;;
11791;SDS011;5953;52.372;9.918;2023-06-10T02:15:02;9.37;;;4.43;;
11791;SDS011;5953;52.372;9.918;2023-06-10T02:17:29;7.33;;;4.47;;
11791;SDS011;5953;52.372;9.918;2023-06-10T02:19:57;8.93;;;4.33;;
11791;SDS011;5953;52.372;9.918;2023-06-10T02:22:26;6.20;;;4.40;;
11791;SDS011;5953;52.372;9.918;2023-06-10T02:24:53;8.23;;;3.97;;
11791;SDS011;5953;52.372;9.918;2023-06-10T02:27:21;7.37;;;4.20;;
11791;SDS011;5953;52.372;9.918;2023-06-10T02:29:50;5.07;;;3.87;;
11791;SDS011;5953;52.372;9.918;2023-06-10T02:32:17;6.93;;;3.80;;
11791;SDS011;5953;52.372;9.918;2023-06-10T02:34:45;7.97;;;4.40;;
11791;SDS011;5953;52.372;9.918;2023-06-10T02:37:13;6.90;;;3.70;;
11791;SDS011;5953;52.372;9.918;2023-06-10T02:39:41;6.60;;;4.43;;
11791;SDS011;5953;52.372;9.918;2023-06-10T02:42:08;10.53;;;5.10;;
11791;SDS011;5953;52.372;9.918;2023-06-10T02:44:37;6.83;;;4.53;;
11791;SDS011;5953;52.372;9.918;2023-06-10T02:47:06;9.83;;;4.67;;
11791;SDS011;5953;52.372;9.918;2023-06-10T02:49:33;10.00;;;4.40;;
11791;SDS011;5953;52.372;9.918;2023-06-10T02:52:01;9.00;;;4.87;;
11791;SDS011;5953;52.372;9.918;2023-06-10T02:54:28;9.17;;;4.33;;
11791;SDS011;5953;52.372;9.918;2023-06-10T02:56:56;4.70;;;4.20;;
11791;SDS011;5953;52.372;9.918;2023-06-10T02:59:23;9.80;;;4.30;;
11791;SDS011;5953;52.372;9.918;2023-06-10T03:01:53;7.67;;;4.67;;
11791;SDS011;5953;52.372;9.918;2023-06-10T03:04:22;8.23;;;4.57;;
11791;SDS011;5953;52.372;9.918;2023-06-10T03:06:50;9.83;;;4.90;;
11791;SDS011;5953;52.372;9.918;2023-06-10T03:09:17;7.57;;;4.70;;
11791;SDS011;5953;52.372;9.918;2023-06-10T03:11:45;6.50;;;4.70;;
11791;SDS011;5953;52.372;9.918;2023-06-10T03:14:12;6.60;;;4.17;;
11791;SDS011;5953;52.372;9.918;2023-06-10T03:16:40;8.10;;;4.73;;
11791;SDS011;5953;52.372;9.918;2023-06-10T03:19:08;9.80;;;5.17;;
11791;SDS011;5953;52.372;9.918;2023-06-10T03:21:37;7.87;;;4.60;;
11791;SDS011;5953;52.372;9.918;2023-06-10T03:24:08;8.97;;;4.63;;
11791;SDS011;5953;52.372;9.918;2023-06-10T03:26:35;9.40;;;5.30;;
11791;SDS011;5953;52.372;9.918;2023-06-10T03:29:03;9.93;;;4.90;;
11791;SDS011;5953;52.372;9.918;2023-06-10T03:31:31;7.40;;;4.83;;
11791;SDS011;5953;52.372;9.918;2023-06-10T03:33:59;8.70;;;4.80;;
11791;SDS011;5953;52.372;9.918;2023-06-10T03:36:26;10.13;;;4.80;;
11791;SDS011;5953;52.372;9.918;2023-06-10T03:38:56;8.13;;;4.90;;
11791;SDS011;5953;52.372;9.918;2023-06-10T03:41:24;9.57;;;5.10;;
11791;SDS011;5953;52.372;9.918;2023-06-10T03:43:51;7.23;;;4.77;;
11791;SDS011;5953;52.372;9.918;2023-06-10T03:46:19;7.57;;;4.30;;
11791;SDS011;5953;52.372;9.918;2023-06-10T03:48:47;7.27;;;4.80;;
11791;SDS011;5953;52.372;9.918;2023-06-10T03:51:14;7.77;;;5.07;;
11791;SDS011;5953;52.372;9.918;2023-06-10T03:53:42;7.43;;;4.90;;
11791;SDS011;5953;52.372;9.918;2023-06-10T03:56:11;6.63;;;4.90;;
11791;SDS011;5953;52.372;9.918;2023-06-10T03:58:38;8.30;;;5.30;;
11791;SDS011;5953;52.372;9.918;2023-06-10T04:01:06;9.70;;;5.20;;
11791;SDS011;5953;52.372;9.918;2023-06-10T04:03:34;8.50;;;5.77;;
11791;SDS011;5953;52.372;9.918;2023-06-10T04:06:01;9.77;;;5.97;;
11791;SDS011;5953;52.372;9.918;2023-06-10T04:08:30;9.97;;;5.57;;
11791;SDS011;5953;52.372;9.918;2023-06-10T04:10:59;8.30;;;6.03;;
11791;SDS011;5953;52.372;9.918;2023-06-10T04:13:28;11.27;;;5.63;;
11791;SDS011;5953;52.372;9.918;2023-06-10T04:15:55;12.27;;;6.13;;
11791;SDS011;5953;52.372;9.918;2023-06-10T04:18:23;8.23;;;5.80;;
11791;SDS011;5953;52.372;9.918;2023-06-10T04:20:51;10.50;;;6.00;;
11791;SDS011;5953;52.372;9.918;2023-06-10T04:23:18;8.50;;;5.70;;
11791;SDS011;5953;52.372;9.918;2023-06-10T04:25:46;10.97;;;6.57;;
11791;SDS011;5953;52.372;9.918;2023-06-10T04:28:14;9.63;;;5.80;;
11791;SDS011;5953;52.372;9.918;2023-06-10T04:30:42;9.67;;;6.60;;
11791;SDS011;5953;52.372;9.918;2023-06-10T04:33:11;8.97;;;6.20;;
11791;SDS011;5953;52.372;9.918;2023-06-10T04:35:38;12.53;;;6.03;;
11791;SDS011;5953;52.372;9.918;2023-06-10T04:38:06;7.27;;;5.60;;
11791;SDS011;5953;52.372;9.918;2023-06-10T04:40:33;9.83;;;5.07;;
11791;SDS011;5953;52.372;9.918;2023-06-10T04:43:01;11.23;;;5.80;;
11791;SDS011;5953;52.372;9.918;2023-06-10T04:45:28;8.13;;;5.07;;
11791;SDS011;5953;52.372;9.918;2023-06-10T04:47:58;8.37;;;5.67;;
11791;SDS011;5953;52.372;9.918;2023-06-10T04:50:26;8.47;;;5.73;;
11791;SDS011;5953;52.372;9.918;2023-06-10T04:52:54;12.60;;;5.93;;
11791;SDS011;5953;52.372;9.918;2023-06-10T04:55:23;7.30;;;5.40;;
11791;SDS011;5953;52.372;9.918;2023-06-10T04:57:51;13.70;;;5.50;;
11791;SDS011;5953;52.372;9.918;2023-06-10T05:00:19;7.37;;;5.33;;
11791;SDS011;5953;52.372;9.918;2023-06-10T05:02:46;10.53;;;5.87;;
11791;SDS011;5953;52.372;9.918;2023-06-10T05:05:17;9.80;;;5.33;;
11791;SDS011;5953;52.372;9.918;2023-06-10T05:07:45;10.70;;;5.30;;
11791;SDS011;5953;52.372;9.918;2023-06-10T05:10:12;10.87;;;6.10;;
11791;SDS011;5953;52.372;9.918;2023-06-10T05:12:40;9.30;;;6.10;;
11791;SDS011;5953;52.372;9.918;2023-06-10T05:15:08;10.13;;;5.60;;
11791;SDS011;5953;52.372;9.918;2023-06-10T05:17:36;9.90;;;5.60;;
11791;SDS011;5953;52.372;9.918;2023-06-10T05:20:04;9.80;;;5.33;;
11791;SDS011;5953;52.372;9.918;2023-06-10T05:22:33;10.47;;;5.00;;
11791;SDS011;5953;52.372;9.918;2023-06-10T05:25:01;11.17;;;6.23;;
11791;SDS011;5953;52.372;9.918;2023-06-10T05:27:29;12.57;;;5.83;;
11791;SDS011;5953;52.372;9.918;2023-06-10T05:29:57;10.77;;;5.90;;
11791;SDS011;5953;52.372;9.918;2023-06-10T05:32:24;8.53;;;5.40;;
11791;SDS011;5953;52.372;9.918;2023-06-10T05:34:52;9.03;;;5.43;;
11791;SDS011;5953;52.372;9.918;2023-06-10T05:37:19;8.00;;;5.80;;
11791;SDS011;5953;52.372;9.918;2023-06-10T05:39:48;10.80;;;5.83;;
11791;SDS011;5953;52.372;9.918;2023-06-10T05:42:16;11.87;;;5.10;;
11791;SDS011;5953;52.372;9.918;2023-06-10T05:44:44;7.93;;;5.67;;
11791;SDS011;5953;52.372;9.918;2023-06-10T05:47:11;7.93;;;5.33;;
11791;SDS011;5953;52.372;9.918;2023-06-10T05:49:39;11.27;;;5.33;;
11791;SDS011;5953;52.372;9.918;2023-06-10T05:52:06;11.00;;;6.40;;
11791;SDS011;5953;52.372;9.918;2023-06-10T05:54:34;8.87;;;5.97;;
11791;SDS011;5953;52.372;9.918;2023-06-10T05:57:03;9.43;;;5.37;;
11791;SDS011;5953;52.372;9.918;2023-06-10T05:59:32;9.17;;;5.13;;
11791;SDS011;5953;52.372;9.918;2023-06-10T06:01:59;11.77;;;5.90;;
11791;SDS011;5953;52.372;9.918;2023-06-10T06:04:27;9.47;;;5.43;;
11791;SDS011;5953;52.372;9.918;2023-06-10T06:06:54;12.17;;;5.63;;
11791;SDS011;5953;52.372;9.918;2023-06-10T06:09:22;10.43;;;5.67;;
11791;SDS011;5953;52.372;9.918;2023-06-10T06:11:49;10.37;;;5.13;;
11791;SDS011;5953;52.372;9.918;2023-06-10T06:14:19;9.53;;;5.50;;
11791;SDS011;5953;52.372;9.918;2023-06-10T06:16:48;7.80;;;4.83;;
11791;SDS011;5953;52.372;9.918;2023-06-10T06:19:16;11.53;;;5.47;;
11791;SDS011;5953;52.372;9.918;2023-06-10T06:21:44;8.97;;;5.53;;
11791;SDS011;5953;52.372;9.918;2023-06-10T06:24:11;10.47;;;4.80;;
11791;SDS011;5953;52.372;9.918;2023-06-10T06:26:39;7.57;;;5.07;;
11791;SDS011;5953;52.372;9.918;2023-06-10T06:29:07;7.23;;;4.50;;
11791;SDS011;5953;52.372;9.918;2023-06-10T06:31:35;8.23;;;5.27;;
11791;SDS011;5953;52.372;9.918;2023-06-10T06:34:03;10.83;;;5.33;;
11791;SDS011;5953;52.372;9.918;2023-06-10T06:36:31;7.90;;;4.77;;
11791;SDS011;5953;52.372;9.918;2023-06-10T06:38:58;8.33;;;5.30;;
11791;SDS011;5953;52.372;9.918;2023-06-10T06:41:26;9.13;;;5.50;;
11791;SDS011;5953;52.372;9.918;2023-06-10T06:43:53;7.03;;;4.70;;
11791;SDS011;5953;52.372;9.918;2023-06-10T06:46:21;11.47;;;5.83;;
11791;SDS011;5953;52.372;9.918;2023-06-10T06:48:51;12.00;;;5.60;;
11791;SDS011;5953;52.372;9.918;2023-06-10T06:51:18;7.07;;;5.57;;
11791;SDS011;5953;52.372;9.918;2023-06-10T06:53:46;10.90;;;5.83;;
11791;SDS011;5953;52.372;9.918;2023-06-10T06:56:16;11.10;;;5.20;;
11791;SDS011;5953;52.372;9.918;2023-06-10T06:58:43;8.97;;;5.40;;
11791;SDS011;5953;52.372;9.918;2023-06-10T07:01:11;10.87;;;5.47;;
11791;SDS011;5953;52.372;9.918;2023-06-10T07:03:39;8.60;;;5.40;;
11791;SDS011;5953;52.372;9.918;2023-06-10T07:06:08;9.33;;;5.77;;
11791;SDS011;5953;52.372;9.918;2023-06-10T07:08:36;8.17;;;5.60;;
11791;SDS011;5953;52.372;9.918;2023-06-10T07:11:04;6.30;;;5.13;;
11791;SDS011;5953;52.372;9.918;2023-06-10T07:13:32;7.50;;;4.83;;
11791;SDS011;5953;52.372;9.918;2023-06-10T07:15:59;9.13;;;5.20;;
11791;SDS011;5953;52.372;9.918;2023-06-10T07:18:27;8.60;;;5.40;;
11791;SDS011;5953;52.372;9.918;2023-06-10T07:20:55;9.53;;;5.27;;
11791;SDS011;5953;52.372;9.918;2023-06-10T07:23:28;9.20;;;5.10;;
11791;SDS011;5953;52.372;9.918;2023-06-10T07:25:56;9.27;;;5.63;;
11791;SDS011;5953;52.372;9.918;2023-06-10T07:28:24;9.73;;;5.40;;
11791;SDS011;5953;52.372;9.918;2023-06-10T07:30:52;8.23;;;5.90;;
11791;SDS011;5953;52.372;9.918;2023-06-10T07:33:20;8.50;;;5.20;;
11791;SDS011;5953;52.372;9.918;2023-06-10T07:35:48;9.63;;;5.50;;
11791;SDS011;5953;52.372;9.918;2023-06-10T07:38:16;8.50;;;5.10;;
11791;SDS011;5953;52.372;9.918;2023-06-10T07:40:46;8.87;;;5.53;;
11791;SDS011;5953;52.372;9.918;2023-06-10T07:43:17;9.27;;;5.77;;
11791;SDS011;5953;52.372;9.918;2023-06-10T07:45:45;8.37;;;5.80;;
11791;SDS011;5953;52.372;9.918;2023-06-10T07:48:12;10.10;;;5.50;;
11791;SDS011;5953;52.372;9.918;2023-06-10T07:50:41;11.03;;;6.20;;
11791;SDS011;5953;52.372;9.918;2023-06-10T07:53:09;10.30;;;5.50;;
11791;SDS011;5953;52.372;9.918;2023-06-10T07:55:36;8.90;;;5.43;;
11791;SDS011;5953;52.372;9.918;2023-06-10T07:58:05;7.72;;;5.55;;
11791;SDS011;5953;52.372;9.918;2023-06-10T08:00:33;7.80;;;5.28;;
11791;SDS011;5953;52.372;9.918;2023-06-10T08:03:00;9.40;;;5.60;;
11791;SDS011;5953;52.372;9.918;2023-06-10T08:05:29;9.43;;;5.60;;
11791;SDS011;5953;52.372;9.918;2023-06-10T08:07:57;8.95;;;5.22;;
11791;SDS011;5953;52.372;9.918;2023-06-10T08:10:28;9.60;;;5.93;;
11791;SDS011;5953;52.372;9.918;2023-06-10T08:12:56;8.95;;;4.70;;
11791;SDS011;5953;52.372;9.918;2023-06-10T08:15:25;7.80;;;4.72;;
11791;SDS011;5953;52.372;9.918;2023-06-10T08:17:53;9.27;;;5.43;;
11791;SDS011;5953;52.372;9.918;2023-06-10T08:20:20;8.40;;;5.25;;
11791;SDS011;5953;52.372;9.918;2023-06-10T08:22:48;9.82;;;5.10;;
11791;SDS011;5953;52.372;9.918;2023-06-10T08:25:16;12.18;;;6.55;;
11791;SDS011;5953;52.372;9.918;2023-06-10T08:27:44;9.35;;;5.72;;
11791;SDS011;5953;52.372;9.918;2023-06-10T08:30:12;7.38;;;5.13;;
11791;SDS011;5953;52.372;9.918;2023-06-10T08:32:42;8.15;;;5.22;;
11791;SDS011;5953;52.372;9.918;2023-06-10T08:35:09;8.23;;;5.30;;
11791;SDS011;5953;52.372;9.918;2023-06-10T08:37:37;8.32;;;5.20;;
11791;SDS011;5953;52.372;9.918;2023-06-10T08:40:05;8.02;;;4.65;;
11791;SDS011;5953;52.372;9.918;2023-06-10T08:42:33;8.18;;;5.05;;
11791;SDS011;5953;52.372;9.918;2023-06-10T08:45:02;8.40;;;5.30;;
11791;SDS011;5953;52.372;9.918;2023-06-10T08:47:32;8.35;;;4.78;;
11791;SDS011;5953;52.372;9.918;2023-06-10T08:50:04;8.70;;;5.32;;
11791;SDS011;5953;52.372;9.918;2023-06-10T08:52:37;7.75;;;4.80;;
11791;SDS011;5953;52.372;9.918;2023-06-10T08:55:09;7.57;;;4.80;;
11791;SDS011;5953;52.372;9.918;2023-06-10T08:57:38;10.02;;;4.45;;
11791;SDS011;5953;52.372;9.918;2023-06-10T09:00:08;6.20;;;4.13;;
11791;SDS011;5953;52.372;9.918;2023-06-10T09:02:36;9.07;;;4.78;;
11791;SDS011;5953;52.372;9.918;2023-06-10T09:05:07;8.40;;;4.80;;
11791;SDS011;5953;52.372;9.918;2023-06-10T09:07:35;9.25;;;5.00;;
11791;SDS011;5953;52.372;9.918;2023-06-10T09:10:03;9.57;;;4.70;;
11791;SDS011;5953;52.372;9.918;2023-06-10T09:12:34;6.55;;;4.30;;
11791;SDS011;5953;52.372;9.918;2023-06-10T09:15:04;5.93;;;4.82;;
11791;SDS011;5953;52.372;9.918;2023-06-10T09:17:32;6.80;;;4.93;;
11791;SDS011;5953;52.372;9.918;2023-06-10T09:20:00;7.78;;;4.60;;
11791;SDS011;5953;52.372;9.918;2023-06-10T09:22:30;11.27;;;4.95;;
11791;SDS011;5953;52.372;9.918;2023-06-10T09:25:04;9.27;;;5.20;;
11791;SDS011;5953;52.372;9.918;2023-06-10T09:27:33;7.28;;;4.60;;
11791;SDS011;5953;52.372;9.918;2023-06-10T09:30:13;6.85;;;4.80;;
11791;SDS011;5953;52.372;9.918;2023-06-10T09:32:51;8.35;;;4.60;;
11791;SDS011;5953;52.372;9.918;2023-06-10T09:35:19;6.80;;;4.68;;
11791;SDS011;5953;52.372;9.918;2023-06-10T09:37:48;10.00;;;4.75;;
11791;SDS011;5953;52.372;9.918;2023-06-10T09:40:17;6.60;;;4.95;;
11791;SDS011;5953;52.372;9.918;2023-06-10T09:42:44;7.82;;;4.97;;
11791;SDS011;5953;52.372;9.918;2023-06-10T09:45:15;9.57;;;5.95;;
11791;SDS011;5953;52.372;9.918;2023-06-10T09:47:45;7.68;;;4.63;;
11791;SDS011;5953;52.372;9.918;2023-06-10T09:50:13;8.02;;;4.57;;
11791;SDS011;5953;52.372;9.918;2023-06-10T09:52:41;7.03;;;4.40;;
11791;SDS011;5953;52.372;9.918;2023-06-10T09:55:10;6.95;;;4.57;;
11791;SDS011;5953;52.372;9.918;2023-06-10T09:57:38;9.07;;;5.38;;
11791;SDS011;5953;52.372;9.918;2023-06-10T10:00:07;7.88;;;4.85;;
11791;SDS011;5953;52.372;9.918;2023-06-10T10:02:39;6.55;;;4.18;;
11791;SDS011;5953;52.372;9.918;2023-06-10T10:05:10;8.07;;;4.78;;
11791;SDS011;5953;52.372;9.918;2023-06-10T10:07:40;6.18;;;4.47;;
11791;SDS011;5953;52.372;9.918;2023-06-10T10:10:10;6.13;;;4.35;;
11791;SDS011;5953;52.372;9.918;2023-06-10T10:12:39;8.02;;;4.40;;
11791;SDS011;5953;52.372;9.918;2023-06-10T10:15:07;8.82;;;5.32;;
11791;SDS011;5953;52.372;9.918;2023-06-10T10:17:36;6.22;;;4.70;;
11791;SDS011;5953;52.372;9.918;2023-06-10T10:20:05;7.28;;;4.93;;
11791;SDS011;5953;52.372;9.918;2023-06-10T10:22:35;5.95;;;4.60;;
11791;SDS011;5953;52.372;9.918;2023-06-10T10:25:05;5.85;;;4.28;;
11791;SDS011;5953;52.372;9.918;2023-06-10T10:27:39;7.07;;;4.60;;
11791;SDS011;5953;52.372;9.918;2023-06-10T10:30:08;8.15;;;5.53;;
11791;SDS011;5953;52.372;9.918;2023-06-10T10:32:38;7.78;;;5.45;;
11791;SDS011;5953;52.372;9.918;2023-06-10T10:35:11;6.70;;;5.45;;
11791;SDS011;5953;52.372;9.918;2023-06-10T10:37:39;7.43;;;5.38;;
11791;SDS011;5953;52.372;9.918;2023-06-10T10:40:07;6.60;;;5.20;;
11791;SDS011;5953;52.372;9.918;2023-06-10T10:42:37;6.55;;;5.30;;
11791;SDS011;5953;52.372;9.918;2023-06-10T10:45:05;6.45;;;5.50;;
11791;SDS011;5953;52.372;9.918;2023-06-10T10:47:35;8.15;;;5.38;;
11791;SDS011;5953;52.372;9.918;2023-06-10T10:50:12;7.55;;;5.13;;
11791;SDS011;5953;52.372;9.918;2023-06-10T10:55:23;8.63;;;5.70;;
11791;SDS011;5953;52.372;9.918;2023-06-10T10:57:56;8.68;;;4.90;;
11791;SDS011;5953;52.372;9.918;2023-06-10T11:00:26;8.63;;;5.30;;
11791;SDS011;5953;52.372;9.918;2023-06-10T11:02:57;7.22;;;5.35;;
11791;SDS011;5953;52.372;9.918;2023-06-10T11:05:35;9.55;;;6.20;;
11791;SDS011;5953;52.372;9.918;2023-06-10T11:08:04;8.20;;;5.78;;
11791;SDS011;5953;52.372;9.918;2023-06-10T11:10:32;10.05;;;5.43;;
11791;SDS011;5953;52.372;9.918;2023-06-10T11:13:02;7.43;;;5.28;;
11791;SDS011;5953;52.372;9.918;2023-06-10T11:15:32;6.95;;;5.28;;
11791;SDS011;5953;52.372;9.918;2023-06-10T11:18:06;11.90;;;5.35;;
11791;SDS011;5953;52.372;9.918;2023-06-10T11:20:44;7.88;;;5.43;;
11791;SDS011;5953;52.372;9.918;2023-06-10T11:23:24;10.20;;;6.00;;
11791;SDS011;5953;52.372;9.918;2023-06-10T11:26:00;10.13;;;6.13;;
11791;SDS011;5953;52.372;9.918;2023-06-10T11:28:37;6.88;;;5.75;;
11791;SDS011;5953;52.372;9.918;2023-06-10T11:31:05;6.97;;;5.68;;
11791;SDS011;5953;52.372;9.918;2023-06-10T11:33:33;7.22;;;5.90;;
11791;SDS011;5953;52.372;9.918;2023-06-10T11:36:01;7.32;;;5.88;;
11791;SDS011;5953;52.372;9.918;2023-06-10T11:38:33;7.43;;;5.70;;
11791;SDS011;5953;52.372;9.918;2023-06-10T11:41:01;6.20;;;5.60;;
11791;SDS011;5953;52.372;9.918;2023-06-10T11:43:29;7.57;;;5.55;;
11791;SDS011;5953;52.372;9.918;2023-06-10T11:45:58;6.38;;;5.40;;
11791;SDS011;5953;52.372;9.918;2023-06-10T11:48:26;8.00;;;5.78;;
11791;SDS011;5953;52.372;9.918;2023-06-10T11:50:54;8.45;;;6.43;;
11791;SDS011;5953;52.372;9.918;2023-06-10T11:53:22;6.70;;;5.35;;
11791;SDS011;5953;52.372;9.918;2023-06-10T11:55:50;8.77;;;5.93;;
11791;SDS011;5953;52.372;9.918;2023-06-10T11:58:18;6.55;;;5.82;;
11791;SDS011;5953;52.372;9.918;2023-06-10T12:00:46;8.05;;;5.95;;
11791;SDS011;5953;52.372;9.918;2023-06-10T12:03:16;6.78;;;5.85;;
11791;SDS011;5953;52.372;9.918;2023-06-10T12:06:01;7.00;;;6.18;;
11791;SDS011;5953;52.372;9.918;2023-06-10T12:08:40;8.15;;;6.10;;
11791;SDS011;5953;52.372;9.918;2023-06-10T12:11:11;7.82;;;5.93;;
11791;SDS011;5953;52.372;9.918;2023-06-10T12:16:59;7.63;;;6.82;;
11791;SDS011;5953;52.372;9.918;2023-06-10T12:19:48;9.32;;;5.88;;
11791;SDS011;5953;52.372;9.918;2023-06-10T12:22:16;10.80;;;6.65;;
11791;SDS011;5953;52.372;9.918;2023-06-10T12:24:46;8.15;;;6.10;;
11791;SDS011;5953;52.372;9.918;2023-06-10T12:27:28;8.00;;;5.88;;
11791;SDS011;5953;52.372;9.918;2023-06-10T12:30:00;7.88;;;6.13;;
11791;SDS011;5953;52.372;9.918;2023-06-10T12:32:35;6.40;;;5.80;;
11791;SDS011;5953;52.372;9.918;2023-06-10T12:35:09;6.53;;;5.97;;
11791;SDS011;5953;52.372;9.918;2023-06-10T12:37:39;7.00;;;6.10;;
11791;SDS011;5953;52.372;9.918;2023-06-10T12:40:09;9.25;;;6.25;;
11791;SDS011;5953;52.372;9.918;2023-06-10T12:42:37;6.82;;;6.13;;
11791;SDS011;5953;52.372;9.918;2023-06-10T12:45:06;12.75;;;5.85;;
11791;SDS011;5953;52.372;9.918;2023-06-10T12:47:39;9.10;;;5.57;;
11791;SDS011;5953;52.372;9.918;2023-06-10T12:50:09;6.35;;;5.63;;
11791;SDS011;5953;52.372;9.918;2023-06-10T12:52:39;6.63;;;5.65;;
11791;SDS011;5953;52.372;9.918;2023-06-10T12:55:09;10.80;;;6.05;;
11791;SDS011;5953;52.372;9.918;2023-06-10T12:57:47;9.88;;;6.10;;
11791;SDS011;5953;52.372;9.918;2023-06-10T13:00:16;7.28;;;5.75;;
11791;SDS011;5953;52.372;9.918;2023-06-10T13:02:44;7.43;;;6.00;;
11791;SDS011;5953;52.372;9.918;2023-06-10T13:05:13;7.28;;;5.88;;
11791;SDS011;5953;52.372;9.918;2023-06-10T13:07:51;9.00;;;6.20;;
11791;SDS011;5953;52.372;9.918;2023-06-10T13:10:22;8.32;;;6.20;;
11791;SDS011;5953;52.372;9.918;2023-06-10T13:12:51;6.15;;;5.65;;
11791;SDS011;5953;52.372;9.918;2023-06-10T13:15:21;6.60;;;5.82;;
11791;SDS011;5953;52.372;9.918;2023-06-10T13:17:49;8.40;;;5.70;;
11791;SDS011;5953;52.372;9.918;2023-06-10T13:20:24;8.57;;;5.72;;
11791;SDS011;5953;52.372;9.918;2023-06-10T13:22:53;7.40;;;5.63;;
11791;SDS011;5953;52.372;9.918;2023-06-10T13:25:21;7.10;;;5.88;;
11791;SDS011;5953;52.372;9.918;2023-06-10T13:27:56;6.45;;;5.70;;
11791;SDS011;5953;52.372;9.918;2023-06-10T13:30:26;9.00;;;5.90;;
11791;SDS011;5953;52.372;9.918;2023-06-10T13:32:56;6.30;;;5.70;;
11791;SDS011;5953;52.372;9.918;2023-06-10T13:35:26;8.05;;;6.25;;
11791;SDS011;5953;52.372;9.918;2023-06-10T13:37:54;6.78;;;5.70;;
11791;SDS011;5953;52.372;9.918;2023-06-10T13:40:22;7.82;;;6.30;;
11791;SDS011;5953;52.372;9.918;2023-06-10T13:42:50;8.10;;;5.90;;
11791;SDS011;5953;52.372;9.918;2023-06-10T13:45:22;7.50;;;5.93;;
11791;SDS011;5953;52.372;9.918;2023-06-10T13:47:54;9.77;;;6.28;;
11791;SDS011;5953;52.372;9.918;2023-06-10T13:50:23;8.85;;;6.40;;
11791;SDS011;5953;52.372;9.918;2023-06-10T13:52:57;6.35;;;5.75;;
11791;SDS011;5953;52.372;9.918;2023-06-10T13:55:32;8.57;;;5.53;;
11791;SDS011;5953;52.372;9.918;2023-06-10T13:58:00;6.10;;;5.47;;
11791;SDS011;5953;52.372;9.918;2023-06-10T14:00:38;10.82;;;6.35;;
11791;SDS011;5953;52.372;9.918;2023-06-10T14:03:09;6.50;;;5.90;;
11791;SDS011;5953;52.372;9.918;2023-06-10T14:05:37;8.57;;;5.70;;
11791;SDS011;5953;52.372;9.918;2023-06-10T14:08:07;6.43;;;5.78;;
11791;SDS011;5953;52.372;9.918;2023-06-10T14:10:35;7.88;;;5.78;;
11791;SDS011;5953;52.372;9.918;2023-06-10T14:13:02;7.40;;;5.65;;
11791;SDS011;5953;52.372;9.918;2023-06-10T14:15:31;7.70;;;6.93;;
11791;SDS011;5953;52.372;9.918;2023-06-10T14:17:59;7.28;;;6.15;;
11791;SDS011;5953;52.372;9.918;2023-06-10T14:20:26;7.53;;;6.20;;
11791;SDS011;5953;52.372;9.918;2023-06-10T14:22:57;6.90;;;6.18;;
11791;SDS011;5953;52.372;9.918;2023-06-10T14:25:26;7.53;;;5.53;;
11791;SDS011;5953;52.372;9.918;2023-06-10T14:27:54;7.05;;;6.00;;
11791;SDS011;5953;52.372;9.918;2023-06-10T14:30:22;6.85;;;5.53;;
11791;SDS011;5953;52.372;9.918;2023-06-10T14:32:49;6.32;;;5.72;;
11791;SDS011;5953;52.372;9.918;2023-06-10T14:35:17;6.72;;;6.13;;
11791;SDS011;5953;52.372;9.918;2023-06-10T14:37:45;7.22;;;5.78;;
11791;SDS011;5953;52.372;9.918;2023-06-10T14:40:12;9.90;;;6.30;;
11791;SDS011;5953;52.372;9.918;2023-06-10T14:42:41;8.68;;;6.43;;
11791;SDS011;5953;52.372;9.918;2023-06-10T14:45:09;5.90;;;5.40;;
11791;SDS011;5953;52.372;9.918;2023-06-10T14:47:37;6.93;;;5.80;;
11791;SDS011;5953;52.372;9.918;2023-06-10T14:50:05;7.00;;;5.93;;
11791;SDS011;5953;52.372;9.918;2023-06-10T14:52:33;6.35;;;5.80;;
11791;SDS011;5953;52.372;9.918;2023-06-10T14:55:00;6.53;;;5.90;;
11791;SDS011;5953;52.372;9.918;2023-06-10T14:57:28;6.25;;;5.65;;
11791;SDS011;5953;52.372;9.918;2023-06-10T14:59:57;6.60;;;5.95;;
11791;SDS011;5953;52.372;9.918;2023-06-10T15:02:24;9.68;;;6.82;;
11791;SDS011;5953;52.372;9.918;2023-06-10T15:04:52;6.32;;;5.80;;
11791;SDS011;5953;52.372;9.918;2023-06-10T15:07:20;6.05;;;5.53;;
11791;SDS011;5953;52.372;9.918;2023-06-10T15:09:47;9.98;;;5.75;;
11791;SDS011;5953;52.372;9.918;2023-06-10T15:12:15;6.30;;;5.75;;
11791;SDS011;5953;52.372;9.918;2023-06-10T15:14:43;7.25;;;6.00;;
11791;SDS011;5953;52.372;9.918;2023-06-10T15:17:12;7.18;;;5.78;;